Terminal Aerodrome Forecast
Issued by NWS

Home | Current Version | Previous Version | Text Only | Print | Product List | Glossary Off
Versions: 1 2 3 4 5 6 7 8 9 10 11 12 13 14 15 16 17 18 19 20 21 22 23 24 25 26 27 28 29 30 31 32 33 34

000
FTUS43 KGLD 231500 AAC
TAFMCK
TAF AMD
KMCK 231551Z 2316/2412 04012KT P6SM VCTS SCT025CB BKN050
      TEMPO 2316/2317 VRB20G35KT 4SM TSRA BKN030CB
     FM231730 12012G18KT P6SM FEW030
     FM240200 12007KT P6SM SCT300=

USA.gov is the U.S. government's official web portal to all federal, state and local government web resources and services.